This is the latest recevied weather packets stored in our database for station/object EA4BHK-10. If no packets are shown the sender has not sent any weather packets the latest 10 day(s).
| Time | Temp. | Humidity | Pressure | Rain* | Wind** | Luminosity | Snow |
|---|---|---|---|---|---|---|---|
| 1788030512 | 22.78° C | 24% | 1017.5 hPa | - | - | - | - |
| 1788029605 | 23.33° C | 23% | 1017.1 hPa | - | - | - | - |
| 1788028705 | 23.89° C | 22% | 1016.8 hPa | - | - | - | - |
| 1788027805 | 24.44° C | 21% | 1016.6 hPa | - | - | - | - |
| 1788026905 | 25° C | 20% | 1016.3 hPa | - | - | - | - |
| 1788026005 | 25.56° C | 19% | 1016.1 hPa | - | - | - | - |
| 1788025105 | 26.11° C | 18% | 1015.9 hPa | - | - | - | - |
| 1788024207 | 25.56° C | 18% | 1016.1 hPa | - | - | - | - |
| 1788023390 | 25.56° C | 18% | 1016 hPa | - | - | - | - |
| 1788023305 | 25.56° C | 18% | 1016 hPa | - | - | - | - |
| 1788021617 | 26.67° C | 19% | 1015.8 hPa | - | - | - | - |
| 1788020682 | 26.67° C | 18% | 1015.8 hPa | - | - | - | - |
| 1788019782 | 27.22° C | 17% | 1015.7 hPa | - | - | - | - |
| 1788018882 | 27.22° C | 16% | 1015.8 hPa | - | - | - | - |
| 1788017150 | 27.78° C | 16% | 1015.9 hPa | - | - | - | - |
| 1788017082 | 27.78° C | 16% | 1015.9 hPa | - | - | - | - |
| 1788016225 | 27.78° C | 16% | 1015.9 hPa | - | - | - | - |
| 1788015282 | 28.33° C | 17% | 1016 hPa | - | - | - | - |
| 1788014382 | 28.33° C | 17% | 1016.1 hPa | - | - | - | - |
| 1788013482 | 28.33° C | 18% | 1016.2 hPa | - | - | - | - |
| 1788012582 | 28.33° C | 18% | 1016.4 hPa | - | - | - | - |
| 1788011682 | 28.33° C | 18% | 1016.5 hPa | - | - | - | - |
| 1788010782 | 28.89° C | 19% | 1016.4 hPa | - | - | - | - |
| 1788009923 | 28.33° C | 20% | 1016.7 hPa | - | - | - | - |
| 1788009882 | 28.33° C | 20% | 1016.7 hPa | - | - | - | - |
* Rain since midnight (hover to see other rain measurements)
** Current wind speed in m/s (hover to see current wind gust speed)